createdAt,value
2018-10-19T00:01:32.108Z,31.03
2018-10-19T00:04:00.324Z,31.40
2018-10-19T00:06:28.528Z,31.97
2018-10-19T00:08:56.756Z,30.77
2018-10-19T00:11:24.969Z,34.03
2018-10-19T00:13:53.292Z,36.00
2018-10-19T00:16:21.800Z,33.27
2018-10-19T00:18:50.536Z,32.80
2018-10-19T00:21:18.747Z,31.93
2018-10-19T00:23:47.168Z,30.27
2018-10-19T00:26:15.389Z,34.63
2018-10-19T00:28:43.612Z,32.93
2018-10-19T00:31:11.920Z,34.20
2018-10-19T00:33:40.098Z,37.10
2018-10-19T00:36:08.383Z,35.87
2018-10-19T00:38:36.590Z,33.77
2018-10-19T00:41:05.066Z,32.67
2018-10-19T00:43:33.484Z,32.47
2018-10-19T00:46:01.866Z,33.17
2018-10-19T00:48:30.056Z,32.43
2018-10-19T00:50:58.295Z,31.90
2018-10-19T00:53:26.483Z,33.03
2018-10-19T00:55:54.716Z,31.13
2018-10-19T00:58:22.927Z,32.10
2018-10-19T01:00:51.149Z,32.20
2018-10-19T01:03:19.340Z,32.50
2018-10-19T01:05:47.572Z,31.47
2018-10-19T01:08:15.792Z,33.13
2018-10-19T01:10:44.003Z,31.40
2018-10-19T01:13:12.216Z,31.50
2018-10-19T01:15:40.420Z,31.27
2018-10-19T01:18:08.913Z,32.87
2018-10-19T01:20:37.166Z,32.30
2018-10-19T01:23:05.565Z,31.53
2018-10-19T01:25:33.767Z,32.97
2018-10-19T01:28:01.982Z,32.27
2018-10-19T01:30:30.220Z,31.50
2018-10-19T01:32:58.463Z,34.47
2018-10-19T01:35:26.715Z,34.73
2018-10-19T01:37:55.002Z,34.03
2018-10-19T01:40:23.244Z,34.83
2018-10-19T01:42:51.480Z,39.37
2018-10-19T01:45:19.840Z,44.70
2018-10-19T01:47:48.049Z,46.37
2018-10-19T01:50:16.268Z,43.67
2018-10-19T01:52:44.491Z,43.33
2018-10-19T01:55:12.711Z,41.27
2018-10-19T01:57:40.920Z,37.93
2018-10-19T02:00:09.165Z,38.33
2018-10-19T02:02:37.368Z,35.73
2018-10-19T02:05:05.633Z,33.53
2018-10-19T02:07:33.792Z,37.07
2018-10-19T02:10:01.996Z,34.07
2018-10-19T02:12:30.260Z,35.23
2018-10-19T02:14:58.525Z,35.70
2018-10-19T02:17:26.680Z,33.57
2018-10-19T02:19:54.887Z,33.57
2018-10-19T02:22:23.103Z,33.57
2018-10-19T02:24:51.296Z,32.00
2018-10-19T02:27:19.508Z,30.87
2018-10-19T02:29:47.839Z,34.70
2018-10-19T02:32:16.038Z,33.47
2018-10-19T02:34:44.627Z,31.80
2018-10-19T02:37:12.829Z,31.23
2018-10-19T02:39:41.040Z,32.43
2018-10-19T02:42:09.495Z,32.37
2018-10-19T02:44:37.703Z,31.40
2018-10-19T02:47:06.234Z,31.00
2018-10-19T02:49:34.397Z,31.27
2018-10-19T02:52:02.624Z,32.03
2018-10-19T02:54:30.843Z,30.27
2018-10-19T02:56:59.373Z,31.87
2018-10-19T02:59:27.528Z,31.50
2018-10-19T03:01:55.797Z,31.23
2018-10-19T03:04:23.988Z,30.07
2018-10-19T03:06:52.217Z,31.20
2018-10-19T03:09:20.431Z,31.63
2018-10-19T03:11:48.705Z,34.27
2018-10-19T03:14:17.017Z,34.80
2018-10-19T03:16:45.580Z,33.27
2018-10-19T03:19:14.048Z,35.03
2018-10-19T03:21:42.366Z,35.40
2018-10-19T03:24:10.562Z,35.07
2018-10-19T03:26:38.856Z,34.80
2018-10-19T03:29:07.134Z,33.43
2018-10-19T03:31:35.283Z,36.53
2018-10-19T03:34:03.703Z,37.57
2018-10-19T03:36:31.900Z,35.57
2018-10-19T03:39:00.149Z,36.70
2018-10-19T03:41:28.328Z,35.30
2018-10-19T03:43:56.532Z,36.63
2018-10-19T03:46:24.764Z,34.27
2018-10-19T03:48:52.977Z,37.73
2018-10-19T03:51:21.160Z,36.40
2018-10-19T03:53:49.671Z,36.33
2018-10-19T03:56:17.856Z,36.13
2018-10-19T03:58:46.048Z,34.63
2018-10-19T04:01:14.636Z,36.90
2018-10-19T04:03:42.838Z,37.93
2018-10-19T04:06:11.046Z,40.17
2018-10-19T04:08:39.336Z,44.30
2018-10-19T04:11:07.733Z,40.77
2018-10-19T04:13:35.889Z,38.07
2018-10-19T04:16:04.142Z,37.43
2018-10-19T04:18:32.340Z,37.60
2018-10-19T04:21:00.600Z,39.60
2018-10-19T04:23:28.751Z,39.73
2018-10-19T04:25:57.172Z,41.60
2018-10-19T04:28:25.409Z,40.77
2018-10-19T04:30:53.632Z,41.80
2018-10-19T04:33:21.921Z,41.90
2018-10-19T04:35:50.138Z,40.57
2018-10-19T04:38:18.370Z,41.63
2018-10-19T04:40:46.686Z,44.23
2018-10-19T04:43:14.896Z,39.93
2018-10-19T04:45:43.108Z,42.63
2018-10-19T04:48:11.315Z,36.50
2018-10-19T04:50:39.547Z,34.80
2018-10-19T04:53:07.874Z,39.10
2018-10-19T04:55:35.996Z,36.93
2018-10-19T04:58:04.207Z,39.80
2018-10-19T05:00:32.765Z,42.60
2018-10-19T05:03:01.015Z,44.47
2018-10-19T05:05:29.256Z,46.90
2018-10-19T05:07:57.493Z,48.80
2018-10-19T05:10:25.916Z,51.23
2018-10-19T05:12:54.219Z,52.63
2018-10-19T05:15:22.348Z,52.73
2018-10-19T05:17:50.892Z,57.77
2018-10-19T05:20:19.184Z,55.90
2018-10-19T05:22:47.396Z,54.30
2018-10-19T05:25:15.952Z,57.37
2018-10-19T05:27:44.157Z,53.27
2018-10-19T05:30:13.196Z,52.23
2018-10-19T05:32:42.201Z,51.10
2018-10-19T05:35:10.468Z,51.13
2018-10-19T05:37:39.479Z,48.93
2018-10-19T05:40:08.896Z,46.17
2018-10-19T05:42:37.316Z,42.87
2018-10-19T05:45:07.742Z,44.07
2018-10-19T05:47:35.954Z,48.07
2018-10-19T05:50:05.067Z,53.17
2018-10-19T05:52:33.268Z,46.30
2018-10-19T05:55:01.493Z,49.40
2018-10-19T05:57:29.721Z,43.60
2018-10-19T05:59:57.952Z,45.73
2018-10-19T06:02:26.316Z,45.47
2018-10-19T06:04:54.385Z,45.60
2018-10-19T06:07:22.786Z,48.43
2018-10-19T06:09:50.971Z,47.40
2018-10-19T06:12:19.188Z,47.17
2018-10-19T06:14:47.425Z,46.30
2018-10-19T06:17:15.652Z,47.73
2018-10-19T06:19:43.851Z,49.37
2018-10-19T06:22:12.053Z,50.60
2018-10-19T06:24:40.303Z,50.17
2018-10-19T06:27:08.561Z,48.30
2018-10-19T06:29:36.762Z,47.83
2018-10-19T06:32:05.457Z,47.47
2018-10-19T06:34:33.633Z,50.90
2018-10-19T06:37:01.834Z,46.70
2018-10-19T06:39:30.128Z,49.83
2018-10-19T06:41:58.333Z,46.33
2018-10-19T06:44:26.604Z,49.63
2018-10-19T06:46:54.809Z,47.53
2018-10-19T06:49:23.047Z,50.60
2018-10-19T06:51:51.272Z,46.87
2018-10-19T06:54:19.595Z,49.43
2018-10-19T06:56:47.832Z,50.43
2018-10-19T06:59:16.065Z,51.43
2018-10-19T07:01:44.245Z,52.40
2018-10-19T07:04:12.464Z,48.40
2018-10-19T07:06:40.694Z,50.07
2018-10-19T07:09:09.138Z,48.70
2018-10-19T07:11:37.370Z,50.00
2018-10-19T07:14:05.655Z,47.13
2018-10-19T07:16:33.864Z,46.67
2018-10-19T07:19:02.116Z,46.07
2018-10-19T07:21:30.333Z,42.60
2018-10-19T07:23:58.509Z,42.73
2018-10-19T07:26:26.749Z,42.67
2018-10-19T07:28:55.205Z,43.93
2018-10-19T07:31:23.372Z,41.53
2018-10-19T07:33:52.156Z,39.20
2018-10-19T07:36:20.438Z,36.20
2018-10-19T07:38:48.612Z,37.60
2018-10-19T07:41:16.912Z,35.30
2018-10-19T07:43:45.040Z,36.83
2018-10-19T07:46:13.264Z,35.67
2018-10-19T07:48:42.368Z,34.73
2018-10-19T07:51:10.572Z,31.80
2018-10-19T07:53:38.798Z,32.50
2018-10-19T07:56:07.449Z,33.00
2018-10-19T07:58:35.564Z,34.87
2018-10-19T08:01:03.837Z,33.17
2018-10-19T08:03:32.007Z,33.83
2018-10-19T08:06:00.921Z,34.40
2018-10-19T08:08:29.147Z,34.13
2018-10-19T08:10:57.371Z,33.80
2018-10-19T08:13:25.571Z,34.90
2018-10-19T08:15:53.772Z,35.27
2018-10-19T08:18:21.987Z,35.70
2018-10-19T08:20:50.175Z,32.63
2018-10-19T08:23:18.397Z,33.67
2018-10-19T08:25:46.619Z,33.83
2018-10-19T08:28:14.835Z,34.20
2018-10-19T08:30:43.076Z,33.80
2018-10-19T08:33:11.287Z,33.30
2018-10-19T08:35:39.506Z,34.53
2018-10-19T08:38:07.712Z,33.97
2018-10-19T08:40:35.939Z,34.00
2018-10-19T08:43:04.169Z,36.30
2018-10-19T08:45:32.470Z,35.30
2018-10-19T08:48:00.645Z,34.83
2018-10-19T08:50:28.879Z,35.73
2018-10-19T08:52:57.101Z,35.87
2018-10-19T08:55:25.322Z,35.13
2018-10-19T08:57:53.554Z,35.33
2018-10-19T09:00:21.720Z,34.37
2018-10-19T09:02:49.928Z,34.03
2018-10-19T09:05:18.166Z,36.33
2018-10-19T09:07:46.372Z,36.63
2018-10-19T09:10:14.580Z,35.37
2018-10-19T09:12:43.173Z,33.73
2018-10-19T09:15:11.423Z,34.50
2018-10-19T09:17:39.531Z,38.27
2018-10-19T09:20:07.759Z,34.87
2018-10-19T09:22:35.996Z,35.87
2018-10-19T09:25:04.312Z,37.47
2018-10-19T09:27:32.511Z,37.07
2018-10-19T09:30:00.729Z,37.80
2018-10-19T09:32:29.808Z,37.50
2018-10-19T09:34:58.042Z,37.20
2018-10-19T09:37:26.239Z,38.70
2018-10-19T09:39:54.468Z,38.50
2018-10-19T09:42:22.696Z,39.37
2018-10-19T09:44:50.884Z,37.80
2018-10-19T09:47:19.114Z,39.20
2018-10-19T09:49:47.304Z,40.63
2018-10-19T09:52:15.547Z,41.50
2018-10-19T09:54:43.763Z,41.63
2018-10-19T09:57:12.075Z,41.10
2018-10-19T09:59:40.274Z,41.20
2018-10-19T10:02:08.566Z,40.60
2018-10-19T10:04:36.756Z,41.60
2018-10-19T10:07:05.025Z,41.17
2018-10-19T10:09:33.184Z,42.10
2018-10-19T10:12:01.384Z,42.33
2018-10-19T10:14:29.638Z,41.13
2018-10-19T10:16:57.838Z,41.00
2018-10-19T10:19:26.061Z,42.63
2018-10-19T10:21:54.363Z,41.27
2018-10-19T10:24:22.530Z,42.63
2018-10-19T10:26:50.734Z,41.40
2018-10-19T10:29:19.270Z,40.70
2018-10-19T10:31:47.480Z,41.47
2018-10-19T10:34:15.777Z,42.37
2018-10-19T10:36:43.932Z,43.07
2018-10-19T10:39:13.465Z,44.20
2018-10-19T10:41:41.473Z,42.67
2018-10-19T10:44:09.767Z,43.27
2018-10-19T10:46:38.041Z,42.73
2018-10-19T10:49:06.720Z,42.53
2018-10-19T10:51:34.856Z,42.90
2018-10-19T10:54:03.071Z,46.07
2018-10-19T10:56:31.305Z,44.00
2018-10-19T10:58:59.566Z,43.97
2018-10-19T11:01:28.335Z,44.40
2018-10-19T11:03:56.566Z,43.00
2018-10-19T11:06:24.772Z,43.90
2018-10-19T11:08:52.997Z,42.70
2018-10-19T11:11:21.215Z,42.63
2018-10-19T11:13:49.424Z,42.00
2018-10-19T11:16:17.640Z,42.17
2018-10-19T11:18:46.164Z,42.47
2018-10-19T11:21:14.392Z,41.00
2018-10-19T11:23:42.636Z,41.60
2018-10-19T11:26:11.088Z,41.03
2018-10-19T11:28:39.304Z,41.70
2018-10-19T11:31:07.580Z,40.20
2018-10-19T11:33:35.803Z,40.57
2018-10-19T11:36:04.029Z,43.67
2018-10-19T11:38:32.256Z,41.90
2018-10-19T11:41:00.484Z,42.07
2018-10-19T11:43:28.764Z,40.20
2018-10-19T11:45:57.019Z,44.17
2018-10-19T11:48:25.175Z,44.03
2018-10-19T11:50:53.432Z,41.70
2018-10-19T11:53:21.682Z,42.67
2018-10-19T11:55:49.882Z,43.03
2018-10-19T11:58:18.150Z,43.97
2018-10-19T12:00:46.564Z,42.83
2018-10-19T12:03:14.772Z,42.47
2018-10-19T12:05:43.004Z,41.10
2018-10-19T12:08:11.228Z,41.70
2018-10-19T12:10:39.531Z,40.13
2018-10-19T12:13:07.759Z,42.93
2018-10-19T12:15:35.916Z,42.23
2018-10-19T12:18:04.159Z,40.13
2018-10-19T12:20:32.383Z,41.80
2018-10-19T12:23:00.615Z,40.57
2018-10-19T12:25:28.859Z,37.00
2018-10-19T12:27:57.109Z,38.17
2018-10-19T12:30:25.341Z,38.77
2018-10-19T12:32:53.546Z,39.80
2018-10-19T12:35:21.883Z,39.30
2018-10-19T12:37:50.093Z,39.33
2018-10-19T12:40:18.554Z,38.50
2018-10-19T12:42:46.761Z,40.50
2018-10-19T12:46:25.866Z,38.80
2018-10-19T12:48:54.525Z,37.07
2018-10-19T12:51:22.697Z,37.70
2018-10-19T12:53:50.996Z,38.33
2018-10-19T12:56:19.936Z,38.07
2018-10-19T12:58:49.047Z,37.77
2018-10-19T13:01:17.300Z,36.57
2018-10-19T13:03:45.519Z,37.50
2018-10-19T13:06:13.761Z,36.90
2018-10-19T13:08:41.969Z,35.47
2018-10-19T13:11:10.224Z,36.83
2018-10-19T13:13:38.429Z,37.97
2018-10-19T13:16:06.725Z,38.10
2018-10-19T13:18:34.921Z,38.73
2018-10-19T13:21:03.251Z,37.83
2018-10-19T13:23:32.244Z,36.97
2018-10-19T13:26:00.733Z,37.57
2018-10-19T13:28:29.140Z,36.67
2018-10-19T13:30:57.356Z,36.27
2018-10-19T13:33:25.900Z,36.30
2018-10-19T13:35:54.629Z,38.00
2018-10-19T13:38:23.408Z,37.63
2018-10-19T13:40:52.420Z,37.20
2018-10-19T13:43:20.919Z,36.30
2018-10-19T13:45:49.242Z,36.70
2018-10-19T13:48:17.696Z,36.83
2018-10-19T13:50:45.960Z,37.43
2018-10-19T13:53:14.173Z,38.47
2018-10-19T13:55:42.407Z,38.20
2018-10-19T13:58:10.639Z,36.97
2018-10-19T14:00:38.866Z,37.43
2018-10-19T14:03:07.150Z,37.07
2018-10-19T14:05:35.481Z,36.80
2018-10-19T14:08:03.590Z,36.53
2018-10-19T14:10:31.831Z,35.40
2018-10-19T14:13:00.108Z,37.27
2018-10-19T14:15:28.314Z,36.13
2018-10-19T14:17:56.543Z,34.27
2018-10-19T14:20:24.809Z,35.70
2018-10-19T14:22:53.092Z,36.83
2018-10-19T14:25:21.405Z,34.00
2018-10-19T14:27:49.684Z,36.27
2018-10-19T14:30:18.740Z,36.23
2018-10-19T14:32:46.972Z,36.83
2018-10-19T14:35:15.486Z,38.20
2018-10-19T14:37:44.696Z,35.47
2018-10-19T14:40:14.448Z,35.90
2018-10-19T14:42:43.166Z,40.15
2018-10-19T14:45:12.669Z,36.37
2018-10-19T14:47:41.542Z,35.13
2018-10-19T14:50:11.568Z,34.77
2018-10-19T14:52:39.786Z,34.60
2018-10-19T14:55:10.297Z,34.60
2018-10-19T14:57:38.506Z,34.07
2018-10-19T15:00:15.526Z,35.30
2018-10-19T15:02:43.736Z,34.60
2018-10-19T15:05:13.390Z,34.37
2018-10-19T15:07:41.560Z,34.37
2018-10-19T15:10:13.473Z,34.33
2018-10-19T15:12:41.876Z,34.33
2018-10-19T15:15:11.719Z,34.13
2018-10-19T15:17:39.881Z,34.23
2018-10-19T15:20:08.212Z,34.30
2018-10-19T15:22:36.520Z,33.37
2018-10-19T15:25:05.296Z,33.57
2018-10-19T15:27:33.623Z,34.23
2018-10-19T15:30:01.929Z,34.20
2018-10-19T15:32:30.065Z,33.63
2018-10-19T15:34:58.268Z,34.83
2018-10-19T15:37:27.442Z,35.00
2018-10-19T15:39:55.641Z,35.47
2018-10-19T15:42:23.856Z,35.80
2018-10-19T15:44:52.081Z,35.70
2018-10-19T15:47:24.932Z,36.40
2018-10-19T15:49:54.108Z,37.70
2018-10-19T15:52:22.305Z,35.43
2018-10-19T15:54:50.883Z,37.73
2018-10-19T15:57:19.145Z,37.37
2018-10-19T15:59:47.288Z,35.47
2018-10-19T16:02:15.717Z,38.87
2018-10-19T16:04:44.595Z,36.17
2018-10-19T16:07:12.839Z,36.60
2018-10-19T16:09:41.073Z,37.67
2018-10-19T16:12:09.388Z,36.70
2018-10-19T16:14:37.581Z,38.40
2018-10-19T16:17:05.919Z,37.17
2018-10-19T16:19:34.141Z,38.40
2018-10-19T16:22:02.680Z,36.83
2018-10-19T16:24:30.916Z,38.13
2018-10-19T16:26:59.214Z,38.03
2018-10-19T16:29:27.485Z,37.77
2018-10-19T16:31:55.669Z,38.50
2018-10-19T16:34:23.892Z,38.00
2018-10-19T16:36:52.258Z,38.80
2018-10-19T16:39:20.461Z,37.87
2018-10-19T16:41:48.699Z,39.40
2018-10-19T16:44:16.945Z,37.30
2018-10-19T16:46:45.142Z,39.07
2018-10-19T16:49:13.345Z,41.03
2018-10-19T16:51:41.606Z,40.17
2018-10-19T16:54:09.916Z,40.50
2018-10-19T16:56:38.031Z,39.77
2018-10-19T16:59:06.250Z,40.93
2018-10-19T17:01:34.477Z,40.23
2018-10-19T17:04:02.758Z,42.03
2018-10-19T17:06:30.988Z,42.87
2018-10-19T17:08:59.501Z,42.70
2018-10-19T17:11:27.716Z,43.90
2018-10-19T17:13:55.938Z,43.77
2018-10-19T17:16:24.194Z,40.80
2018-10-19T17:18:52.564Z,43.47
2018-10-19T17:21:20.877Z,43.20
2018-10-19T17:23:49.115Z,42.77
2018-10-19T17:26:17.332Z,43.23
2018-10-19T17:28:45.552Z,43.67
2018-10-19T17:31:13.864Z,42.90
2018-10-19T17:33:42.173Z,45.63
2018-10-19T17:36:10.265Z,48.90
2018-10-19T17:38:38.440Z,45.10
2018-10-19T17:41:06.697Z,44.90
2018-10-19T17:43:34.900Z,43.83
2018-10-19T17:46:03.116Z,44.70
2018-10-19T17:48:31.326Z,44.90
2018-10-19T17:50:59.621Z,45.17
2018-10-19T17:53:27.804Z,44.43
2018-10-19T17:55:56.048Z,45.27
2018-10-19T17:58:24.303Z,45.50
2018-10-19T18:00:52.476Z,47.50
2018-10-19T18:03:20.689Z,46.03
2018-10-19T18:05:48.956Z,46.43
2018-10-19T18:08:17.160Z,47.80
2018-10-19T18:10:45.422Z,46.63
2018-10-19T18:13:13.880Z,46.50
2018-10-19T18:15:42.139Z,47.83
2018-10-19T18:18:10.332Z,48.03
2018-10-19T18:20:38.560Z,49.03
2018-10-19T18:23:06.926Z,50.17
2018-10-19T18:25:35.011Z,52.03
2018-10-19T18:28:03.251Z,51.17
2018-10-19T18:30:31.575Z,50.77
2018-10-19T18:32:59.872Z,50.20
2018-10-19T18:35:28.149Z,48.93
2018-10-19T18:37:56.417Z,53.67
2018-10-19T18:40:24.623Z,50.07
2018-10-19T18:42:52.876Z,47.30
2018-10-19T18:45:21.108Z,51.20
2018-10-19T18:47:49.509Z,49.83
2018-10-19T18:50:17.807Z,50.53
2018-10-19T18:52:45.962Z,50.63
2018-10-19T18:55:14.329Z,54.43
2018-10-19T18:57:42.901Z,54.50
2018-10-19T19:00:11.715Z,55.77
2018-10-19T19:02:40.092Z,53.60
2018-10-19T19:05:08.362Z,50.20
2018-10-19T19:07:36.575Z,52.83
2018-10-19T19:10:19.395Z,52.27
2018-10-19T19:12:47.643Z,51.40
2018-10-19T19:15:15.844Z,53.00
2018-10-19T19:17:44.396Z,52.90
2018-10-19T19:20:18.073Z,52.70
2018-10-19T19:22:46.296Z,51.30
2018-10-19T19:26:19.324Z,53.13
2018-10-19T19:28:47.555Z,50.87
2018-10-19T19:31:16.092Z,54.67
2018-10-19T19:33:49.713Z,51.80
2018-10-19T19:36:18.200Z,55.63
2018-10-19T19:38:46.440Z,53.83
2018-10-19T19:41:20.188Z,53.03
2018-10-19T19:43:48.503Z,53.10
2018-10-19T19:46:16.720Z,52.33
2018-10-19T19:48:50.336Z,53.40
2018-10-19T19:51:18.629Z,51.60
2018-10-19T19:53:46.823Z,53.73
2018-10-19T19:56:15.199Z,55.63
2018-10-19T19:58:43.340Z,56.70
2018-10-19T20:01:11.576Z,56.53
2018-10-19T20:03:39.804Z,56.40
2018-10-19T20:06:08.376Z,53.00
2018-10-19T20:08:36.657Z,53.70
2018-10-19T20:11:05.286Z,54.13
2018-10-19T20:13:33.498Z,53.03
2018-10-19T20:16:01.761Z,56.37
2018-10-19T20:18:30.388Z,57.57
2018-10-19T20:20:58.588Z,56.47
2018-10-19T20:23:26.817Z,57.20
2018-10-19T20:25:55.348Z,54.40
2018-10-19T20:28:23.635Z,55.17
2018-10-19T20:30:51.937Z,54.50
2018-10-19T20:33:20.189Z,53.23
2018-10-19T20:35:48.580Z,54.80
2018-10-19T20:38:16.877Z,52.60
2018-10-19T20:40:45.074Z,53.47
2018-10-19T20:43:13.268Z,51.90
2018-10-19T20:45:41.760Z,53.27
2018-10-19T20:48:10.008Z,52.00
2018-10-19T20:50:38.212Z,53.53
2018-10-19T20:53:06.602Z,52.57
2018-10-19T20:55:34.813Z,50.90
2018-10-19T20:58:02.977Z,49.30
2018-10-19T21:00:31.209Z,51.43
2018-10-19T21:02:59.422Z,52.77
2018-10-19T21:05:27.664Z,53.73
2018-10-19T21:07:56.124Z,54.67
2018-10-19T21:10:24.364Z,52.10
2018-10-19T21:12:52.628Z,51.37
2018-10-19T21:15:20.843Z,51.80
2018-10-19T21:17:49.084Z,55.77
2018-10-19T21:20:17.312Z,55.60
2018-10-19T21:22:45.556Z,52.43
2018-10-19T21:25:14.212Z,53.07
2018-10-19T21:27:42.468Z,50.60
2018-10-19T21:30:12.131Z,52.33
2018-10-19T21:32:40.355Z,52.00
2018-10-19T21:35:08.632Z,51.00
2018-10-19T21:37:36.845Z,51.53
2018-10-19T21:40:05.284Z,52.63
2018-10-19T21:42:33.572Z,50.40
2018-10-19T21:45:01.796Z,55.53
2018-10-19T21:47:30.036Z,53.80
2018-10-19T21:49:58.368Z,53.70
2018-10-19T21:52:26.528Z,53.33
2018-10-19T21:54:54.748Z,59.37
2018-10-19T21:57:22.956Z,56.20
2018-10-19T21:59:51.160Z,54.03
2018-10-19T22:02:19.404Z,53.47
2018-10-19T22:04:47.627Z,52.63
2018-10-19T22:07:15.869Z,53.60
2018-10-19T22:09:44.074Z,53.40
2018-10-19T22:12:12.358Z,53.20
2018-10-19T22:14:40.565Z,58.97
2018-10-19T22:17:08.840Z,60.90
2018-10-19T22:19:37.011Z,60.73
2018-10-19T22:22:05.344Z,63.10
2018-10-19T22:24:33.555Z,58.83
2018-10-19T22:27:01.797Z,60.73
2018-10-19T22:29:30.088Z,55.77
2018-10-19T22:31:58.306Z,59.47
2018-10-19T22:34:26.544Z,55.77
2018-10-19T22:36:54.807Z,55.23
2018-10-19T22:39:22.978Z,53.93
2018-10-19T22:41:51.201Z,55.87
2018-10-19T22:44:19.417Z,53.67
2018-10-19T22:46:47.619Z,56.17
2018-10-19T22:49:15.897Z,54.13
2018-10-19T22:51:44.055Z,55.07
2018-10-19T22:54:12.255Z,51.37
2018-10-19T22:56:40.560Z,55.30
2018-10-19T22:59:08.806Z,56.30
2018-10-19T23:01:36.933Z,56.23
2018-10-19T23:04:05.698Z,54.97
2018-10-19T23:06:33.900Z,54.73
2018-10-19T23:09:02.133Z,56.30
2018-10-19T23:11:30.348Z,54.87
2018-10-19T23:13:58.581Z,56.13
2018-10-19T23:16:26.812Z,54.83
2018-10-19T23:18:55.039Z,54.43
2018-10-19T23:21:23.553Z,52.97
2018-10-19T23:23:51.735Z,52.70
2018-10-19T23:26:19.939Z,52.03
2018-10-19T23:28:48.159Z,52.30
2018-10-19T23:31:16.470Z,53.73
2018-10-19T23:33:44.598Z,57.43
2018-10-19T23:36:12.808Z,54.57
2018-10-19T23:38:41.010Z,51.20
2018-10-19T23:41:09.278Z,51.70
2018-10-19T23:43:37.468Z,55.07
2018-10-19T23:46:05.840Z,55.23
2018-10-19T23:48:34.093Z,51.57
2018-10-19T23:51:02.387Z,51.93
2018-10-19T23:53:30.592Z,51.77
2018-10-19T23:55:58.822Z,54.20
2018-10-19T23:58:27.043Z,53.87
